createdAt,value
2023-01-31T00:01:41.001Z,38.63
2023-01-31T00:04:12.341Z,19.43
2023-01-31T00:06:43.496Z,15.23
2023-01-31T00:09:12.900Z,18.17
2023-01-31T00:11:39.987Z,15.80
2023-01-31T00:14:08.457Z,17.07
2023-01-31T00:16:36.079Z,16.73
2023-01-31T00:19:04.177Z,94.47
2023-01-31T00:21:32.232Z,16.03
2023-01-31T00:24:00.144Z,16.70
2023-01-31T00:26:33.958Z,18.33
2023-01-31T00:29:03.878Z,14.03
2023-01-31T00:31:33.563Z,19.53
2023-01-31T00:34:00.799Z,17.87
2023-01-31T00:36:33.698Z,21.03
2023-01-31T00:39:03.288Z,15.10
2023-01-31T00:41:31.196Z,14.33
2023-01-31T00:43:58.493Z,12.47
2023-01-31T00:46:26.042Z,11.23
2023-01-31T00:48:53.523Z,16.13
2023-01-31T00:51:21.328Z,17.43
2023-01-31T00:53:50.178Z,10.30
2023-01-31T00:56:23.557Z,14.17
2023-01-31T00:58:51.442Z,18.63
2023-01-31T01:01:26.071Z,17.47
2023-01-31T01:03:53.864Z,15.53
2023-01-31T01:06:21.534Z,16.67
2023-01-31T01:08:48.372Z,23.53
2023-01-31T01:11:22.746Z,20.00
2023-01-31T01:13:50.095Z,17.93
2023-01-31T01:16:24.011Z,18.43
2023-01-31T01:18:51.071Z,17.37
2023-01-31T01:21:22.329Z,24.47
2023-01-31T01:23:50.104Z,26.48
2023-01-31T01:26:22.763Z,26.07
2023-01-31T01:28:50.641Z,26.90
2023-01-31T01:31:19.292Z,16.00
2023-01-31T01:33:47.972Z,23.63
2023-01-31T01:36:18.131Z,23.80
2023-01-31T01:38:45.754Z,26.97
2023-01-31T01:41:14.497Z,28.93
2023-01-31T01:43:48.800Z,18.53
2023-01-31T01:46:33.247Z,18.70
2023-01-31T01:49:11.961Z,22.67
2023-01-31T01:51:40.613Z,20.67
2023-01-31T01:54:13.598Z,20.97
2023-01-31T01:56:43.821Z,22.00
2023-01-31T01:59:25.395Z,19.83
2023-01-31T02:04:25.993Z,23.43
2023-01-31T02:06:53.569Z,18.80
2023-01-31T02:09:33.210Z,21.83
2023-01-31T02:11:59.999Z,22.83
2023-01-31T02:14:27.400Z,16.13
2023-01-31T02:16:54.278Z,19.97
2023-01-31T02:19:37.751Z,22.23
2023-01-31T02:22:33.305Z,21.40
2023-01-31T02:25:24.250Z,24.67
2023-01-31T02:28:19.692Z,22.70
2023-01-31T02:31:26.303Z,24.43
2023-01-31T02:34:04.492Z,22.00
2023-01-31T02:37:19.856Z,24.80
2023-01-31T02:40:08.731Z,21.30
2023-01-31T02:43:02.667Z,22.60
2023-01-31T02:45:58.519Z,17.63
2023-01-31T02:48:58.123Z,21.20
2023-01-31T02:52:04.965Z,23.07
2023-01-31T02:54:53.620Z,21.73
2023-01-31T02:57:22.184Z,15.93
2023-01-31T02:59:49.200Z,23.77
2023-01-31T03:02:16.257Z,20.77
2023-01-31T03:04:43.291Z,25.77
2023-01-31T03:07:22.257Z,17.03
2023-01-31T03:10:04.157Z,21.57
2023-01-31T03:12:31.243Z,24.20
2023-01-31T03:16:04.161Z,23.50
2023-01-31T03:18:47.465Z,20.10
2023-01-31T03:21:19.807Z,20.03
2023-01-31T03:23:52.069Z,23.83
2023-01-31T03:26:21.013Z,23.63
2023-01-31T03:28:54.577Z,20.90
2023-01-31T03:31:33.441Z,20.13
2023-01-31T03:34:06.577Z,19.70
2023-01-31T03:36:46.459Z,19.40
2023-01-31T03:39:42.232Z,18.63
2023-01-31T03:42:18.975Z,21.83
2023-01-31T03:45:06.536Z,20.57
2023-01-31T03:47:37.474Z,19.70
2023-01-31T03:50:12.127Z,20.60
2023-01-31T03:52:49.660Z,18.90
2023-01-31T03:55:24.795Z,23.93
2023-01-31T03:57:54.840Z,19.70
2023-01-31T04:00:24.400Z,18.53
2023-01-31T04:03:26.907Z,18.27
2023-01-31T04:05:54.009Z,20.73
2023-01-31T04:08:21.294Z,21.50
2023-01-31T04:10:48.447Z,18.73
2023-01-31T04:13:15.366Z,23.97
2023-01-31T04:15:42.197Z,23.97
2023-01-31T04:18:08.960Z,24.27
2023-01-31T04:20:35.720Z,23.10
2023-01-31T04:23:03.752Z,27.57
2023-01-31T04:25:32.788Z,24.90
2023-01-31T04:28:00.228Z,22.87
2023-01-31T04:30:27.028Z,19.93
2023-01-31T04:32:53.771Z,21.83
2023-01-31T04:35:20.847Z,20.20
2023-01-31T04:37:47.768Z,19.00
2023-01-31T04:40:14.551Z,20.73
2023-01-31T04:42:41.330Z,19.50
2023-01-31T04:45:09.382Z,18.70
2023-01-31T04:47:36.179Z,16.43
2023-01-31T04:50:03.250Z,18.90
2023-01-31T04:52:30.111Z,17.37
2023-01-31T04:54:56.958Z,19.03
2023-01-31T04:57:23.751Z,19.20
2023-01-31T04:59:52.128Z,17.87
2023-01-31T05:02:19.113Z,18.27
2023-01-31T05:04:46.217Z,17.30
2023-01-31T05:07:12.991Z,16.37
2023-01-31T05:09:42.391Z,17.37
2023-01-31T05:12:09.266Z,16.87
2023-01-31T05:14:36.261Z,16.27
2023-01-31T05:17:03.052Z,15.97
2023-01-31T05:19:29.844Z,16.33
2023-01-31T05:21:59.131Z,16.33
2023-01-31T05:24:32.839Z,15.17
2023-01-31T05:27:01.778Z,16.73
2023-01-31T05:29:32.319Z,28.23
2023-01-31T05:32:01.982Z,34.20
2023-01-31T05:34:32.642Z,43.87
2023-01-31T05:36:59.869Z,49.40
2023-01-31T05:39:27.401Z,33.93
2023-01-31T05:41:54.563Z,18.67
2023-01-31T05:44:21.601Z,23.17
2023-01-31T05:46:48.694Z,19.93
2023-01-31T05:49:15.529Z,22.87
2023-01-31T05:51:42.684Z,16.10
2023-01-31T05:54:11.698Z,23.33
2023-01-31T05:56:39.173Z,19.37
2023-01-31T05:59:06.415Z,20.03
2023-01-31T06:01:33.492Z,16.37
2023-01-31T06:04:00.801Z,16.93
2023-01-31T06:06:27.674Z,16.70
2023-01-31T06:08:54.475Z,22.20
2023-01-31T06:11:21.315Z,21.53
2023-01-31T06:13:49.480Z,24.27
2023-01-31T06:16:16.772Z,39.03
2023-01-31T06:18:43.960Z,26.50
2023-01-31T06:21:12.039Z,25.67
2023-01-31T06:23:38.930Z,18.67
2023-01-31T06:26:05.711Z,19.70
2023-01-31T06:28:33.033Z,19.87
2023-01-31T06:30:59.895Z,19.33
2023-01-31T06:33:42.267Z,22.33
2023-01-31T06:36:11.127Z,18.10
2023-01-31T06:38:37.876Z,16.17
2023-01-31T06:41:04.943Z,18.60
2023-01-31T06:43:31.792Z,18.83
2023-01-31T06:45:58.610Z,20.97
2023-01-31T06:48:25.361Z,25.73
2023-01-31T06:50:52.132Z,17.03
2023-01-31T06:53:18.916Z,24.13
2023-01-31T06:55:45.676Z,19.70
2023-01-31T06:58:12.447Z,20.20
2023-01-31T07:00:39.208Z,23.97
2023-01-31T07:03:06.012Z,28.83
2023-01-31T07:05:32.828Z,23.53
2023-01-31T07:07:59.601Z,24.63
2023-01-31T07:10:26.499Z,32.27
2023-01-31T07:12:53.387Z,24.43
2023-01-31T07:15:20.565Z,20.60
2023-01-31T07:17:47.842Z,37.73
2023-01-31T07:20:14.710Z,27.83
2023-01-31T07:22:41.537Z,39.40
2023-01-31T07:25:08.842Z,60.57
2023-01-31T07:27:35.902Z,53.10
2023-01-31T07:30:02.713Z,29.70
2023-01-31T07:32:31.128Z,46.17
2023-01-31T07:34:57.983Z,22.97
2023-01-31T07:37:25.001Z,49.23
2023-01-31T07:39:51.787Z,82.07
2023-01-31T07:42:18.628Z,45.17
2023-01-31T07:44:45.504Z,29.40
2023-01-31T07:47:12.266Z,21.43
2023-01-31T07:49:39.073Z,22.80
2023-01-31T07:52:07.918Z,20.03
2023-01-31T07:54:35.261Z,27.23
2023-01-31T07:57:02.079Z,24.30
2023-01-31T07:59:29.609Z,64.73
2023-01-31T08:02:14.892Z,30.57
2023-01-31T08:04:41.676Z,7.93
2023-01-31T08:07:10.139Z,37.60
2023-01-31T08:09:39.034Z,27.47
2023-01-31T08:12:07.809Z,42.10
2023-01-31T08:14:34.573Z,55.33
2023-01-31T08:17:01.390Z,10.60
2023-01-31T08:19:28.244Z,14.37
2023-01-31T08:21:55.014Z,41.93
2023-01-31T08:24:21.897Z,70.47
2023-01-31T08:26:48.759Z,70.17
2023-01-31T08:29:15.529Z,56.47
2023-01-31T08:31:42.485Z,121.67
2023-01-31T08:34:10.126Z,36.37
2023-01-31T08:36:38.246Z,98.70
2023-01-31T08:39:05.407Z,70.37
2023-01-31T08:41:34.694Z,25.30
2023-01-31T08:44:04.727Z,10.87
2023-01-31T08:46:35.088Z,13.47
2023-01-31T08:49:04.573Z,16.90
2023-01-31T08:51:31.615Z,20.40
2023-01-31T08:53:58.440Z,17.03
2023-01-31T08:56:26.258Z,10.07
2023-01-31T08:58:54.684Z,10.53
2023-01-31T09:01:22.716Z,15.67
2023-01-31T09:03:50.691Z,14.70
2023-01-31T09:06:20.752Z,14.73
2023-01-31T09:08:47.924Z,12.73
2023-01-31T09:11:18.755Z,19.13
2023-01-31T09:13:47.872Z,10.93
2023-01-31T09:16:15.350Z,10.30
2023-01-31T09:18:43.288Z,7.97
2023-01-31T09:21:12.601Z,16.50
2023-01-31T09:23:42.383Z,11.13
2023-01-31T09:26:10.964Z,21.00
2023-01-31T09:28:38.119Z,10.20
2023-01-31T09:31:11.875Z,16.17
2023-01-31T09:33:38.787Z,10.50
2023-01-31T09:36:09.410Z,10.80
2023-01-31T09:38:36.846Z,13.20
2023-01-31T09:41:21.485Z,11.10
2023-01-31T09:43:54.744Z,13.73
2023-01-31T09:46:27.486Z,13.00
2023-01-31T09:48:56.598Z,8.33
2023-01-31T09:51:24.265Z,15.07
2023-01-31T09:53:51.241Z,11.57
2023-01-31T09:56:34.220Z,15.07
2023-01-31T09:59:24.171Z,20.73
2023-01-31T10:02:05.339Z,11.00
2023-01-31T10:05:11.798Z,10.75
2023-01-31T10:08:15.497Z,14.40
2023-01-31T10:10:48.421Z,21.23
2023-01-31T10:13:57.724Z,19.93
2023-01-31T10:16:33.003Z,18.63
2023-01-31T10:19:16.903Z,14.03
2023-01-31T10:21:53.340Z,13.10
2023-01-31T10:24:46.430Z,16.87
2023-01-31T10:27:31.398Z,25.90
2023-01-31T10:30:03.954Z,18.53
2023-01-31T10:32:45.197Z,11.90
2023-01-31T10:35:23.765Z,22.15
2023-01-31T10:37:59.613Z,21.37
2023-01-31T10:40:34.478Z,20.97
2023-01-31T10:43:09.723Z,12.93
2023-01-31T10:45:38.465Z,22.67
2023-01-31T10:48:20.131Z,57.87
2023-01-31T10:51:24.344Z,20.80
2023-01-31T10:54:17.251Z,23.70
2023-01-31T10:56:47.404Z,16.13
2023-01-31T10:59:38.441Z,20.37
2023-01-31T11:02:20.032Z,17.15
2023-01-31T11:04:47.278Z,16.30
2023-01-31T11:07:14.211Z,15.13
2023-01-31T11:09:44.050Z,15.57
2023-01-31T11:12:10.893Z,14.40
2023-01-31T11:14:37.738Z,18.97
2023-01-31T11:17:23.461Z,13.40
2023-01-31T11:19:53.960Z,15.77
2023-01-31T11:22:27.311Z,13.67
2023-01-31T11:24:56.637Z,24.67
2023-01-31T11:27:33.670Z,16.40
2023-01-31T11:30:00.854Z,11.30
2023-01-31T11:32:35.212Z,21.87
2023-01-31T11:35:24.036Z,22.17
2023-01-31T11:37:55.973Z,17.60
2023-01-31T11:40:27.653Z,17.83
2023-01-31T11:43:04.800Z,16.87
2023-01-31T11:45:36.291Z,14.63
2023-01-31T11:48:15.386Z,18.77
2023-01-31T11:51:02.636Z,19.23
2023-01-31T11:53:44.049Z,16.30
2023-01-31T11:56:22.066Z,13.27
2023-01-31T11:58:53.722Z,20.97
2023-01-31T12:01:23.235Z,17.37
2023-01-31T12:04:04.648Z,10.43
2023-01-31T12:06:38.216Z,8.97
2023-01-31T12:09:28.524Z,7.23
2023-01-31T12:12:00.184Z,6.67
2023-01-31T12:14:42.240Z,10.73
2023-01-31T12:17:16.787Z,14.23
2023-01-31T12:20:26.952Z,8.63
2023-01-31T12:23:06.848Z,13.75
2023-01-31T12:26:10.210Z,15.10
2023-01-31T12:29:05.685Z,22.30
2023-01-31T12:31:43.827Z,8.97
2023-01-31T12:34:24.672Z,10.03
2023-01-31T12:37:03.160Z,12.57
2023-01-31T12:40:03.239Z,6.00
2023-01-31T12:42:55.821Z,12.65
2023-01-31T12:45:52.988Z,14.65
2023-01-31T12:48:57.991Z,17.17
2023-01-31T12:51:46.639Z,12.77
2023-01-31T12:54:39.317Z,12.30
2023-01-31T12:57:39.441Z,9.43
2023-01-31T13:00:18.080Z,8.73
2023-01-31T13:02:58.575Z,15.87
2023-01-31T13:05:33.916Z,7.80
2023-01-31T13:08:11.201Z,9.43
2023-01-31T13:10:45.037Z,19.30
2023-01-31T13:13:22.848Z,15.67
2023-01-31T13:16:01.300Z,19.30
2023-01-31T13:18:32.840Z,11.10
2023-01-31T13:21:05.220Z,10.33
2023-01-31T13:24:13.725Z,10.60
2023-01-31T13:27:08.995Z,22.80
2023-01-31T13:29:56.635Z,8.33
2023-01-31T13:32:30.909Z,10.37
2023-01-31T13:35:13.214Z,7.90
2023-01-31T13:37:43.973Z,5.70
2023-01-31T13:40:19.264Z,8.65
2023-01-31T13:42:46.115Z,8.57
2023-01-31T13:45:28.813Z,4.97
2023-01-31T13:48:26.010Z,14.03
2023-01-31T13:51:02.904Z,22.90
2023-01-31T13:53:39.693Z,6.30
2023-01-31T13:56:11.081Z,9.27
2023-01-31T14:01:14.112Z,27.53
2023-01-31T14:04:12.374Z,10.47
2023-01-31T14:07:02.599Z,9.70
2023-01-31T14:09:34.202Z,9.67
2023-01-31T14:12:09.752Z,5.47
2023-01-31T14:14:39.857Z,5.57
2023-01-31T14:17:13.850Z,10.03
2023-01-31T14:19:43.599Z,4.73
2023-01-31T14:22:16.750Z,8.23
2023-01-31T14:24:49.994Z,9.47
2023-01-31T14:27:31.134Z,8.00
2023-01-31T14:30:07.097Z,7.30
2023-01-31T14:32:45.415Z,8.33
2023-01-31T14:35:14.871Z,6.80
2023-01-31T14:38:34.139Z,7.90
2023-01-31T14:41:29.612Z,4.17
2023-01-31T14:44:03.191Z,3.80
2023-01-31T14:47:08.325Z,8.87
2023-01-31T14:50:34.165Z,6.70
2023-01-31T14:53:39.182Z,7.87
2023-01-31T14:56:35.346Z,7.47
2023-01-31T14:59:03.365Z,9.90
2023-01-31T15:01:36.641Z,5.20
2023-01-31T15:04:04.566Z,8.17
2023-01-31T15:06:40.901Z,7.00
2023-01-31T15:09:24.439Z,8.77
2023-01-31T15:11:57.515Z,8.77
2023-01-31T15:14:47.094Z,8.03
2023-01-31T15:17:35.662Z,9.47
2023-01-31T15:20:20.634Z,7.60
2023-01-31T15:22:48.869Z,6.07
2023-01-31T15:25:45.670Z,11.30
2023-01-31T15:28:24.888Z,7.00
2023-01-31T15:30:54.649Z,5.93
2023-01-31T15:33:45.018Z,8.37
2023-01-31T15:36:24.191Z,6.80
2023-01-31T15:39:06.434Z,5.37
2023-01-31T15:44:29.182Z,5.87
2023-01-31T15:47:03.470Z,7.57
2023-01-31T15:49:40.783Z,7.60
2023-01-31T15:52:19.400Z,6.33
2023-01-31T15:54:53.185Z,7.90
2023-01-31T15:57:23.020Z,15.40
2023-01-31T15:59:50.154Z,7.77
2023-01-31T16:02:25.605Z,6.30
2023-01-31T16:04:52.725Z,6.70
2023-01-31T16:07:22.182Z,17.80
2023-01-31T16:09:49.175Z,7.47
2023-01-31T16:12:16.737Z,7.50
2023-01-31T16:14:48.021Z,7.63
2023-01-31T16:17:15.749Z,15.88
2023-01-31T16:19:43.207Z,37.57
2023-01-31T16:22:55.804Z,25.50
2023-01-31T16:25:23.107Z,34.10
2023-01-31T16:27:50.133Z,25.13
2023-01-31T16:30:18.787Z,17.73
2023-01-31T16:32:51.329Z,8.67
2023-01-31T16:35:26.030Z,6.07
2023-01-31T16:38:07.675Z,9.50
2023-01-31T16:40:37.599Z,11.00
2023-01-31T16:43:25.879Z,12.30
2023-01-31T16:45:58.831Z,6.80
2023-01-31T16:48:29.583Z,10.23
2023-01-31T16:50:59.074Z,6.43
2023-01-31T16:53:41.540Z,7.20
2023-01-31T16:56:14.454Z,11.10
2023-01-31T16:58:59.157Z,7.93
2023-01-31T17:01:34.316Z,12.43
2023-01-31T17:04:09.020Z,6.97
2023-01-31T17:06:36.271Z,14.20
2023-01-31T17:09:05.511Z,7.40
2023-01-31T17:11:43.026Z,10.87
2023-01-31T17:14:11.088Z,9.30
2023-01-31T17:16:37.921Z,10.10
2023-01-31T17:19:04.794Z,7.13
2023-01-31T17:21:40.860Z,8.33
2023-01-31T17:24:17.692Z,9.30
2023-01-31T17:26:45.677Z,6.90
2023-01-31T17:29:12.480Z,8.50
2023-01-31T17:31:39.462Z,12.90
2023-01-31T17:34:13.835Z,14.93
2023-01-31T17:36:40.883Z,11.17
2023-01-31T17:39:07.801Z,11.67
2023-01-31T17:41:34.863Z,13.20
2023-01-31T17:44:06.435Z,12.37
2023-01-31T17:46:33.713Z,6.13
2023-01-31T17:49:00.562Z,12.50
2023-01-31T17:51:27.439Z,13.30
2023-01-31T17:53:54.215Z,9.20
2023-01-31T17:56:21.279Z,14.70
2023-01-31T17:58:49.279Z,11.83
2023-01-31T18:01:16.134Z,8.17
2023-01-31T18:03:43.117Z,15.33
2023-01-31T18:06:12.262Z,9.97
2023-01-31T18:08:39.285Z,10.67
2023-01-31T18:11:12.434Z,10.03
2023-01-31T18:13:39.906Z,17.13
2023-01-31T18:16:16.392Z,13.30
2023-01-31T18:18:43.952Z,13.90
2023-01-31T18:21:19.370Z,17.63
2023-01-31T18:23:52.275Z,10.63
2023-01-31T18:26:20.184Z,11.13
2023-01-31T18:28:47.420Z,12.83
2023-01-31T18:31:15.724Z,10.90
2023-01-31T18:33:45.298Z,11.70
2023-01-31T18:36:19.157Z,14.07
2023-01-31T18:38:48.157Z,11.37
2023-01-31T18:41:18.925Z,14.37
2023-01-31T18:43:46.464Z,7.53
2023-01-31T18:46:13.820Z,16.80
2023-01-31T18:48:41.804Z,11.20
2023-01-31T18:51:12.650Z,16.53
2023-01-31T18:53:45.408Z,9.10
2023-01-31T18:56:22.166Z,17.60
2023-01-31T18:58:49.811Z,14.30
2023-01-31T19:01:20.561Z,16.57
2023-01-31T19:03:55.918Z,19.33
2023-01-31T19:06:26.969Z,30.20
2023-01-31T19:08:56.382Z,29.05
2023-01-31T19:11:27.062Z,20.13
2023-01-31T19:13:54.089Z,21.77
2023-01-31T19:16:24.639Z,16.40
2023-01-31T19:18:52.334Z,20.75
2023-01-31T19:21:32.140Z,14.37
2023-01-31T19:24:02.827Z,11.97
2023-01-31T19:26:31.407Z,8.07
2023-01-31T19:29:00.041Z,11.57
2023-01-31T19:31:31.165Z,9.83
2023-01-31T19:34:01.572Z,14.00
2023-01-31T19:36:31.840Z,11.80
2023-01-31T19:39:00.637Z,11.80
2023-01-31T19:41:28.713Z,15.00
2023-01-31T19:44:00.582Z,12.57
2023-01-31T19:46:30.871Z,9.57
2023-01-31T19:48:58.806Z,8.33
2023-01-31T19:51:26.880Z,12.73
2023-01-31T19:54:01.129Z,13.90
2023-01-31T19:56:29.097Z,11.93
2023-01-31T19:58:56.322Z,14.10
2023-01-31T20:01:23.393Z,12.27
2023-01-31T20:03:50.249Z,11.00
2023-01-31T20:06:25.504Z,12.67
2023-01-31T20:08:56.011Z,26.47
2023-01-31T20:11:24.471Z,10.50
2023-01-31T20:13:53.474Z,10.87
2023-01-31T20:16:21.980Z,8.07
2023-01-31T20:18:51.145Z,12.17
2023-01-31T20:21:20.833Z,10.40
2023-01-31T20:23:49.044Z,10.70
2023-01-31T20:26:17.604Z,12.53
2023-01-31T20:28:44.773Z,10.77
2023-01-31T20:31:14.557Z,11.77
2023-01-31T20:33:42.076Z,10.73
2023-01-31T20:36:10.412Z,17.23
2023-01-31T20:38:38.553Z,14.73
2023-01-31T20:41:08.485Z,13.77
2023-01-31T20:43:36.595Z,15.30
2023-01-31T20:46:07.207Z,14.37
2023-01-31T20:48:34.475Z,9.32
2023-01-31T20:51:01.628Z,6.57
2023-01-31T20:53:28.770Z,13.20
2023-01-31T20:56:02.365Z,12.13
2023-01-31T20:58:33.561Z,11.33
2023-01-31T21:01:01.279Z,9.00
2023-01-31T21:03:29.788Z,39.97
2023-01-31T21:06:00.062Z,11.77
2023-01-31T21:08:27.481Z,12.07
2023-01-31T21:10:57.991Z,9.13
2023-01-31T21:13:28.868Z,8.15
2023-01-31T21:16:01.959Z,8.30
2023-01-31T21:18:32.225Z,9.83
2023-01-31T21:20:59.050Z,11.50
2023-01-31T21:23:25.895Z,7.90
2023-01-31T21:25:52.669Z,13.00
2023-01-31T21:28:19.445Z,8.77
2023-01-31T21:30:57.261Z,6.10
2023-01-31T21:33:25.097Z,9.67
2023-01-31T21:35:51.877Z,12.03
2023-01-31T21:38:18.616Z,7.00
2023-01-31T21:40:45.405Z,6.20
2023-01-31T21:43:12.159Z,8.70
2023-01-31T21:45:41.593Z,9.77
2023-01-31T21:48:29.196Z,7.20
2023-01-31T21:50:57.341Z,9.20
2023-01-31T21:53:24.819Z,8.87
2023-01-31T21:56:13.933Z,10.00
2023-01-31T21:58:41.493Z,9.93
2023-01-31T22:01:18.259Z,11.00
2023-01-31T22:03:50.465Z,10.77
2023-01-31T22:06:22.243Z,9.43
2023-01-31T22:08:55.293Z,9.37
2023-01-31T22:11:22.909Z,10.43
2023-01-31T22:13:55.559Z,10.57
2023-01-31T22:16:23.109Z,10.33
2023-01-31T22:18:51.636Z,13.00
2023-01-31T22:21:31.137Z,9.80
2023-01-31T22:24:00.442Z,12.17
2023-01-31T22:26:37.452Z,10.93
2023-01-31T22:29:07.604Z,12.87
2023-01-31T22:31:35.299Z,13.47
2023-01-31T22:34:03.605Z,11.47
2023-01-31T22:36:30.992Z,12.80
2023-01-31T22:38:57.857Z,12.13
2023-01-31T22:41:25.062Z,11.60
2023-01-31T22:43:53.123Z,12.97
2023-01-31T22:46:23.878Z,9.13
2023-01-31T22:48:50.927Z,10.38
2023-01-31T22:51:24.364Z,9.07
2023-01-31T22:53:51.587Z,10.03
2023-01-31T22:56:24.643Z,16.37
2023-01-31T22:59:05.381Z,7.73
2023-01-31T23:01:37.773Z,14.82
2023-01-31T23:04:10.801Z,12.10
2023-01-31T23:06:38.477Z,18.57
2023-01-31T23:09:05.884Z,11.13
2023-01-31T23:11:32.963Z,10.07
2023-01-31T23:13:59.926Z,6.87
2023-01-31T23:16:47.044Z,9.33
2023-01-31T23:19:15.322Z,9.93
2023-01-31T23:21:42.824Z,14.10
2023-01-31T23:24:10.453Z,8.80
2023-01-31T23:26:37.309Z,10.80
2023-01-31T23:29:04.215Z,13.83
2023-01-31T23:31:32.327Z,9.47
2023-01-31T23:34:05.887Z,8.73
2023-01-31T23:36:32.854Z,11.60
2023-01-31T23:38:59.636Z,14.20
2023-01-31T23:41:26.423Z,12.63
2023-01-31T23:43:53.242Z,10.10
2023-01-31T23:46:20.024Z,12.33
2023-01-31T23:48:46.801Z,13.37
2023-01-31T23:51:13.622Z,11.30
2023-01-31T23:53:40.381Z,11.87
2023-01-31T23:56:07.478Z,13.87
2023-01-31T23:58:34.248Z,13.70
